sensor_id;sensor_type;location;lat;lon;timestamp;temperature;humidity
25937;DHT22;13733;51.178;4.450;2023-04-03T00:01:05;4.30;99.90
25937;DHT22;13733;51.178;4.450;2023-04-03T00:03:31;4.30;99.90
25937;DHT22;13733;51.178;4.450;2023-04-03T00:05:57;4.30;99.90
25937;DHT22;13733;51.178;4.450;2023-04-03T00:08:23;4.30;99.90
25937;DHT22;13733;51.178;4.450;2023-04-03T00:10:49;4.30;99.90
25937;DHT22;13733;51.178;4.450;2023-04-03T00:13:14;4.40;99.90
25937;DHT22;13733;51.178;4.450;2023-04-03T00:15:41;4.30;99.90
25937;DHT22;13733;51.178;4.450;2023-04-03T00:18:07;4.20;99.90
25937;DHT22;13733;51.178;4.450;2023-04-03T00:20:33;4.10;99.90
25937;DHT22;13733;51.178;4.450;2023-04-03T00:23:00;4.10;99.90
25937;DHT22;13733;51.178;4.450;2023-04-03T00:25:26;4.10;99.90
25937;DHT22;13733;51.178;4.450;2023-04-03T00:27:52;4.10;99.90
25937;DHT22;13733;51.178;4.450;2023-04-03T00:30:20;4.00;99.90
25937;DHT22;13733;51.178;4.450;2023-04-03T00:32:48;4.00;99.90
25937;DHT22;13733;51.178;4.450;2023-04-03T00:35:14;3.90;99.90
25937;DHT22;13733;51.178;4.450;2023-04-03T00:37:43;3.90;99.90
25937;DHT22;13733;51.178;4.450;2023-04-03T00:40:10;3.90;99.90
25937;DHT22;13733;51.178;4.450;2023-04-03T00:42:37;3.90;99.90
25937;DHT22;13733;51.178;4.450;2023-04-03T00:47:30;3.80;99.90
25937;DHT22;13733;51.178;4.450;2023-04-03T00:49:57;3.80;99.90
25937;DHT22;13733;51.178;4.450;2023-04-03T00:52:27;3.80;99.90
25937;DHT22;13733;51.178;4.450;2023-04-03T00:54:57;3.80;99.90
25937;DHT22;13733;51.178;4.450;2023-04-03T00:57:23;3.70;99.90
25937;DHT22;13733;51.178;4.450;2023-04-03T00:59:54;3.70;99.90
25937;DHT22;13733;51.178;4.450;2023-04-03T01:02:20;3.70;99.90
25937;DHT22;13733;51.178;4.450;2023-04-03T01:04:46;3.70;99.90
25937;DHT22;13733;51.178;4.450;2023-04-03T01:07:25;3.70;99.90
25937;DHT22;13733;51.178;4.450;2023-04-03T01:09:56;3.80;99.90
25937;DHT22;13733;51.178;4.450;2023-04-03T01:12:30;3.80;99.90
25937;DHT22;13733;51.178;4.450;2023-04-03T01:15:10;3.70;99.90
25937;DHT22;13733;51.178;4.450;2023-04-03T01:17:42;3.80;99.90
25937;DHT22;13733;51.178;4.450;2023-04-03T01:25:38;3.80;99.90
25937;DHT22;13733;51.178;4.450;2023-04-03T01:28:08;3.80;99.90
25937;DHT22;13733;51.178;4.450;2023-04-03T01:33:10;3.70;99.90
25937;DHT22;13733;51.178;4.450;2023-04-03T01:35:37;3.60;99.90
25937;DHT22;13733;51.178;4.450;2023-04-03T01:38:02;3.60;99.90
25937;DHT22;13733;51.178;4.450;2023-04-03T01:40:28;3.60;99.90
25937;DHT22;13733;51.178;4.450;2023-04-03T01:42:55;3.60;99.90
25937;DHT22;13733;51.178;4.450;2023-04-03T01:45:21;3.60;99.90
25937;DHT22;13733;51.178;4.450;2023-04-03T01:47:46;3.50;99.90
25937;DHT22;13733;51.178;4.450;2023-04-03T01:50:12;3.60;99.90
25937;DHT22;13733;51.178;4.450;2023-04-03T01:52:38;3.50;99.90
25937;DHT22;13733;51.178;4.450;2023-04-03T01:55:04;3.50;99.90
25937;DHT22;13733;51.178;4.450;2023-04-03T01:57:30;3.40;99.90
25937;DHT22;13733;51.178;4.450;2023-04-03T01:59:56;3.50;99.90
25937;DHT22;13733;51.178;4.450;2023-04-03T02:02:22;3.40;99.90
25937;DHT22;13733;51.178;4.450;2023-04-03T02:04:47;3.40;99.90
25937;DHT22;13733;51.178;4.450;2023-04-03T02:07:13;3.50;99.90
25937;DHT22;13733;51.178;4.450;2023-04-03T02:09:39;3.40;99.90
25937;DHT22;13733;51.178;4.450;2023-04-03T02:12:05;3.40;99.90
25937;DHT22;13733;51.178;4.450;2023-04-03T02:14:31;3.30;99.90
25937;DHT22;13733;51.178;4.450;2023-04-03T02:16:57;3.20;99.90
25937;DHT22;13733;51.178;4.450;2023-04-03T02:19:23;3.20;99.90
25937;DHT22;13733;51.178;4.450;2023-04-03T02:21:49;3.20;99.90
25937;DHT22;13733;51.178;4.450;2023-04-03T02:24:15;3.10;99.90
25937;DHT22;13733;51.178;4.450;2023-04-03T02:26:40;3.20;99.90
25937;DHT22;13733;51.178;4.450;2023-04-03T02:29:06;3.20;99.90
25937;DHT22;13733;51.178;4.450;2023-04-03T02:31:32;3.20;99.90
25937;DHT22;13733;51.178;4.450;2023-04-03T02:34:00;3.20;99.90
25937;DHT22;13733;51.178;4.450;2023-04-03T02:36:25;3.20;99.90
25937;DHT22;13733;51.178;4.450;2023-04-03T02:38:56;3.20;99.90
25937;DHT22;13733;51.178;4.450;2023-04-03T02:41:21;3.10;99.90
25937;DHT22;13733;51.178;4.450;2023-04-03T02:43:49;3.10;99.90
25937;DHT22;13733;51.178;4.450;2023-04-03T02:46:15;3.10;99.90
25937;DHT22;13733;51.178;4.450;2023-04-03T02:48:41;3.10;99.90
25937;DHT22;13733;51.178;4.450;2023-04-03T02:51:07;3.10;99.90
25937;DHT22;13733;51.178;4.450;2023-04-03T02:53:33;3.10;99.90
25937;DHT22;13733;51.178;4.450;2023-04-03T02:56:05;3.10;99.90
25937;DHT22;13733;51.178;4.450;2023-04-03T02:58:31;3.10;99.90
25937;DHT22;13733;51.178;4.450;2023-04-03T03:00:58;3.00;99.90
25937;DHT22;13733;51.178;4.450;2023-04-03T03:03:24;3.00;99.90
25937;DHT22;13733;51.178;4.450;2023-04-03T03:05:50;3.00;99.90
25937;DHT22;13733;51.178;4.450;2023-04-03T03:08:25;2.90;99.90
25937;DHT22;13733;51.178;4.450;2023-04-03T03:10:51;3.00;99.90
25937;DHT22;13733;51.178;4.450;2023-04-03T03:13:17;2.90;99.90
25937;DHT22;13733;51.178;4.450;2023-04-03T03:15:42;2.80;99.90
25937;DHT22;13733;51.178;4.450;2023-04-03T03:18:08;2.80;99.90
25937;DHT22;13733;51.178;4.450;2023-04-03T03:20:34;2.80;99.90
25937;DHT22;13733;51.178;4.450;2023-04-03T03:23:00;2.80;99.90
25937;DHT22;13733;51.178;4.450;2023-04-03T03:25:26;2.80;99.90
25937;DHT22;13733;51.178;4.450;2023-04-03T03:27:51;2.90;99.90
25937;DHT22;13733;51.178;4.450;2023-04-03T03:30:17;2.80;99.90
25937;DHT22;13733;51.178;4.450;2023-04-03T03:32:43;2.80;99.90
25937;DHT22;13733;51.178;4.450;2023-04-03T03:35:09;2.70;99.90
25937;DHT22;13733;51.178;4.450;2023-04-03T03:37:35;2.80;99.90
25937;DHT22;13733;51.178;4.450;2023-04-03T03:40:01;2.80;99.90
25937;DHT22;13733;51.178;4.450;2023-04-03T03:42:27;2.70;99.90
25937;DHT22;13733;51.178;4.450;2023-04-03T03:44:52;2.80;99.90
25937;DHT22;13733;51.178;4.450;2023-04-03T03:47:19;2.80;99.90
25937;DHT22;13733;51.178;4.450;2023-04-03T03:49:45;2.80;99.90
25937;DHT22;13733;51.178;4.450;2023-04-03T03:52:11;2.80;99.90
25937;DHT22;13733;51.178;4.450;2023-04-03T03:54:37;2.80;99.90
25937;DHT22;13733;51.178;4.450;2023-04-03T03:57:03;2.80;99.90
25937;DHT22;13733;51.178;4.450;2023-04-03T03:59:30;2.80;99.90
25937;DHT22;13733;51.178;4.450;2023-04-03T04:01:56;2.80;99.90
25937;DHT22;13733;51.178;4.450;2023-04-03T04:04:22;2.80;99.90
25937;DHT22;13733;51.178;4.450;2023-04-03T04:06:48;2.70;99.90
25937;DHT22;13733;51.178;4.450;2023-04-03T04:09:14;2.70;99.90
25937;DHT22;13733;51.178;4.450;2023-04-03T04:11:40;2.70;99.90
25937;DHT22;13733;51.178;4.450;2023-04-03T04:14:08;2.70;99.90
25937;DHT22;13733;51.178;4.450;2023-04-03T04:16:36;2.70;99.90
25937;DHT22;13733;51.178;4.450;2023-04-03T04:19:08;2.70;99.90
25937;DHT22;13733;51.178;4.450;2023-04-03T04:21:34;2.70;99.90
25937;DHT22;13733;51.178;4.450;2023-04-03T04:24:00;2.60;99.90
25937;DHT22;13733;51.178;4.450;2023-04-03T04:26:25;2.60;99.90
25937;DHT22;13733;51.178;4.450;2023-04-03T04:28:52;2.50;99.90
25937;DHT22;13733;51.178;4.450;2023-04-03T04:31:18;2.50;99.90
25937;DHT22;13733;51.178;4.450;2023-04-03T04:33:45;2.60;99.90
25937;DHT22;13733;51.178;4.450;2023-04-03T04:36:13;2.50;99.90
25937;DHT22;13733;51.178;4.450;2023-04-03T04:38:41;2.50;99.90
25937;DHT22;13733;51.178;4.450;2023-04-03T04:41:07;2.50;99.90
25937;DHT22;13733;51.178;4.450;2023-04-03T04:43:34;2.50;99.90
25937;DHT22;13733;51.178;4.450;2023-04-03T04:46:05;2.50;99.90
25937;DHT22;13733;51.178;4.450;2023-04-03T04:48:36;2.50;99.90
25937;DHT22;13733;51.178;4.450;2023-04-03T04:51:03;2.60;99.90
25937;DHT22;13733;51.178;4.450;2023-04-03T04:53:29;2.50;99.90
25937;DHT22;13733;51.178;4.450;2023-04-03T04:55:55;2.60;99.90
25937;DHT22;13733;51.178;4.450;2023-04-03T04:58:22;2.50;99.90
25937;DHT22;13733;51.178;4.450;2023-04-03T05:00:48;2.50;99.90
25937;DHT22;13733;51.178;4.450;2023-04-03T05:03:15;2.50;99.90
25937;DHT22;13733;51.178;4.450;2023-04-03T05:05:40;2.40;99.90
25937;DHT22;13733;51.178;4.450;2023-04-03T05:08:06;2.40;99.90
25937;DHT22;13733;51.178;4.450;2023-04-03T05:10:34;2.40;99.90
25937;DHT22;13733;51.178;4.450;2023-04-03T05:13:00;2.50;99.90
25937;DHT22;13733;51.178;4.450;2023-04-03T05:15:26;2.50;99.90
25937;DHT22;13733;51.178;4.450;2023-04-03T05:17:52;2.50;99.90
25937;DHT22;13733;51.178;4.450;2023-04-03T05:20:18;2.40;99.90
25937;DHT22;13733;51.178;4.450;2023-04-03T05:22:45;2.40;99.90
25937;DHT22;13733;51.178;4.450;2023-04-03T05:25:12;2.30;99.90
25937;DHT22;13733;51.178;4.450;2023-04-03T05:27:41;2.40;99.90
25937;DHT22;13733;51.178;4.450;2023-04-03T05:30:08;2.40;99.90
25937;DHT22;13733;51.178;4.450;2023-04-03T05:32:35;2.40;99.90
25937;DHT22;13733;51.178;4.450;2023-04-03T05:35:16;2.40;99.90
25937;DHT22;13733;51.178;4.450;2023-04-03T05:37:42;2.50;99.90
25937;DHT22;13733;51.178;4.450;2023-04-03T05:40:09;2.50;99.90
25937;DHT22;13733;51.178;4.450;2023-04-03T05:42:36;2.50;99.90
25937;DHT22;13733;51.178;4.450;2023-04-03T05:45:02;2.50;99.90
25937;DHT22;13733;51.178;4.450;2023-04-03T05:47:28;2.50;99.90
25937;DHT22;13733;51.178;4.450;2023-04-03T05:49:54;2.60;99.90
25937;DHT22;13733;51.178;4.450;2023-04-03T05:52:27;2.60;99.90
25937;DHT22;13733;51.178;4.450;2023-04-03T05:54:54;2.60;99.90
25937;DHT22;13733;51.178;4.450;2023-04-03T05:57:24;2.70;99.90
25937;DHT22;13733;51.178;4.450;2023-04-03T05:59:50;2.80;99.90
25937;DHT22;13733;51.178;4.450;2023-04-03T06:02:19;2.80;99.90
25937;DHT22;13733;51.178;4.450;2023-04-03T06:04:47;2.80;99.90
25937;DHT22;13733;51.178;4.450;2023-04-03T06:07:15;2.80;99.90
25937;DHT22;13733;51.178;4.450;2023-04-03T06:09:42;2.90;99.90
25937;DHT22;13733;51.178;4.450;2023-04-03T06:12:08;2.90;99.90
25937;DHT22;13733;51.178;4.450;2023-04-03T06:14:33;2.90;99.90
25937;DHT22;13733;51.178;4.450;2023-04-03T06:17:01;3.00;99.90
25937;DHT22;13733;51.178;4.450;2023-04-03T06:19:27;3.10;99.90
25937;DHT22;13733;51.178;4.450;2023-04-03T06:21:55;3.00;99.90
25937;DHT22;13733;51.178;4.450;2023-04-03T06:24:23;3.10;99.90
25937;DHT22;13733;51.178;4.450;2023-04-03T06:26:51;3.20;99.90
25937;DHT22;13733;51.178;4.450;2023-04-03T06:29:18;3.20;99.90
25937;DHT22;13733;51.178;4.450;2023-04-03T06:31:44;3.30;99.90
25937;DHT22;13733;51.178;4.450;2023-04-03T06:34:10;3.40;99.90
25937;DHT22;13733;51.178;4.450;2023-04-03T06:36:37;3.40;99.90
25937;DHT22;13733;51.178;4.450;2023-04-03T06:39:03;3.50;99.90
25937;DHT22;13733;51.178;4.450;2023-04-03T06:41:29;3.50;99.90
25937;DHT22;13733;51.178;4.450;2023-04-03T06:43:54;3.60;99.90
25937;DHT22;13733;51.178;4.450;2023-04-03T06:46:23;3.60;99.90
25937;DHT22;13733;51.178;4.450;2023-04-03T06:48:49;3.70;99.90
25937;DHT22;13733;51.178;4.450;2023-04-03T06:51:26;3.80;99.90
25937;DHT22;13733;51.178;4.450;2023-04-03T06:53:54;3.90;99.90
25937;DHT22;13733;51.178;4.450;2023-04-03T06:56:22;4.00;99.90
25937;DHT22;13733;51.178;4.450;2023-04-03T06:58:48;4.00;99.90
25937;DHT22;13733;51.178;4.450;2023-04-03T07:01:15;4.20;99.90
25937;DHT22;13733;51.178;4.450;2023-04-03T07:03:42;4.30;99.90
25937;DHT22;13733;51.178;4.450;2023-04-03T07:06:10;4.30;99.90
25937;DHT22;13733;51.178;4.450;2023-04-03T07:08:37;4.40;99.90
25937;DHT22;13733;51.178;4.450;2023-04-03T07:11:04;4.50;99.90
25937;DHT22;13733;51.178;4.450;2023-04-03T07:13:30;4.60;99.90
25937;DHT22;13733;51.178;4.450;2023-04-03T07:15:56;4.60;99.90
25937;DHT22;13733;51.178;4.450;2023-04-03T07:18:22;4.70;99.90
25937;DHT22;13733;51.178;4.450;2023-04-03T07:20:48;4.80;99.90
25937;DHT22;13733;51.178;4.450;2023-04-03T07:23:14;4.80;99.90
25937;DHT22;13733;51.178;4.450;2023-04-03T07:25:44;4.90;99.90
25937;DHT22;13733;51.178;4.450;2023-04-03T07:28:10;5.00;99.90
25937;DHT22;13733;51.178;4.450;2023-04-03T07:30:43;5.20;99.90
25937;DHT22;13733;51.178;4.450;2023-04-03T07:33:08;5.30;99.90
25937;DHT22;13733;51.178;4.450;2023-04-03T07:35:34;5.30;99.90
25937;DHT22;13733;51.178;4.450;2023-04-03T07:38:00;5.40;99.90
25937;DHT22;13733;51.178;4.450;2023-04-03T07:40:26;5.50;99.90
25937;DHT22;13733;51.178;4.450;2023-04-03T07:42:52;5.60;99.90
25937;DHT22;13733;51.178;4.450;2023-04-03T07:45:18;5.70;99.90
25937;DHT22;13733;51.178;4.450;2023-04-03T07:47:44;5.80;99.90
25937;DHT22;13733;51.178;4.450;2023-04-03T07:50:10;6.00;99.90
25937;DHT22;13733;51.178;4.450;2023-04-03T07:52:36;6.00;99.90
25937;DHT22;13733;51.178;4.450;2023-04-03T07:55:01;6.10;99.90
25937;DHT22;13733;51.178;4.450;2023-04-03T07:57:27;6.30;99.90
25937;DHT22;13733;51.178;4.450;2023-04-03T07:59:53;6.30;99.90
25937;DHT22;13733;51.178;4.450;2023-04-03T08:02:19;6.50;99.90
25937;DHT22;13733;51.178;4.450;2023-04-03T08:04:46;6.60;99.90
25937;DHT22;13733;51.178;4.450;2023-04-03T08:07:11;6.80;99.90
25937;DHT22;13733;51.178;4.450;2023-04-03T08:09:37;6.80;99.90
25937;DHT22;13733;51.178;4.450;2023-04-03T08:12:03;6.80;99.90
25937;DHT22;13733;51.178;4.450;2023-04-03T08:14:31;6.70;99.90
25937;DHT22;13733;51.178;4.450;2023-04-03T08:17:00;6.80;99.90
25937;DHT22;13733;51.178;4.450;2023-04-03T08:19:26;6.80;99.90
25937;DHT22;13733;51.178;4.450;2023-04-03T08:21:53;6.80;99.90
25937;DHT22;13733;51.178;4.450;2023-04-03T08:24:19;6.90;99.90
25937;DHT22;13733;51.178;4.450;2023-04-03T08:26:45;7.00;99.90
25937;DHT22;13733;51.178;4.450;2023-04-03T08:29:11;7.10;99.90
25937;DHT22;13733;51.178;4.450;2023-04-03T08:31:37;7.20;99.90
25937;DHT22;13733;51.178;4.450;2023-04-03T08:34:03;7.40;99.90
25937;DHT22;13733;51.178;4.450;2023-04-03T08:36:29;7.30;99.90
25937;DHT22;13733;51.178;4.450;2023-04-03T08:38:56;7.30;99.90
25937;DHT22;13733;51.178;4.450;2023-04-03T08:41:34;7.30;99.90
25937;DHT22;13733;51.178;4.450;2023-04-03T08:49:47;7.40;99.90
25937;DHT22;13733;51.178;4.450;2023-04-03T08:52:50;7.50;99.90
25937;DHT22;13733;51.178;4.450;2023-04-03T08:55:24;7.50;99.90
25937;DHT22;13733;51.178;4.450;2023-04-03T08:58:05;7.50;99.90
25937;DHT22;13733;51.178;4.450;2023-04-03T09:00:59;7.60;99.90
25937;DHT22;13733;51.178;4.450;2023-04-03T09:03:30;7.80;99.90
25937;DHT22;13733;51.178;4.450;2023-04-03T09:08:46;8.10;99.90
25937;DHT22;13733;51.178;4.450;2023-04-03T09:11:26;8.40;99.90
25937;DHT22;13733;51.178;4.450;2023-04-03T09:13:59;8.40;99.90
25937;DHT22;13733;51.178;4.450;2023-04-03T09:22:02;8.60;99.90
25937;DHT22;13733;51.178;4.450;2023-04-03T09:24:33;8.60;99.90
25937;DHT22;13733;51.178;4.450;2023-04-03T09:27:04;8.60;99.90
25937;DHT22;13733;51.178;4.450;2023-04-03T09:29:37;8.70;99.90
25937;DHT22;13733;51.178;4.450;2023-04-03T09:34:43;8.70;99.90
25937;DHT22;13733;51.178;4.450;2023-04-03T09:37:32;8.90;99.90
25937;DHT22;13733;51.178;4.450;2023-04-03T09:39:58;8.90;99.90
25937;DHT22;13733;51.178;4.450;2023-04-03T09:42:25;9.00;99.90
25937;DHT22;13733;51.178;4.450;2023-04-03T09:45:02;9.00;99.90
25937;DHT22;13733;51.178;4.450;2023-04-03T09:47:33;9.20;99.90
25937;DHT22;13733;51.178;4.450;2023-04-03T09:52:44;9.40;99.90
25937;DHT22;13733;51.178;4.450;2023-04-03T09:55:18;9.50;99.90
25937;DHT22;13733;51.178;4.450;2023-04-03T09:57:47;9.70;99.90
25937;DHT22;13733;51.178;4.450;2023-04-03T10:00:37;9.70;99.90
25937;DHT22;13733;51.178;4.450;2023-04-03T10:03:04;9.70;99.90
25937;DHT22;13733;51.178;4.450;2023-04-03T10:05:37;9.80;99.90
25937;DHT22;13733;51.178;4.450;2023-04-03T10:10:47;9.80;99.90
25937;DHT22;13733;51.178;4.450;2023-04-03T10:13:18;10.10;99.90
25937;DHT22;13733;51.178;4.450;2023-04-03T10:15:51;10.30;99.90
25937;DHT22;13733;51.178;4.450;2023-04-03T10:18:38;10.40;99.40
25937;DHT22;13733;51.178;4.450;2023-04-03T10:21:19;10.50;98.30
25937;DHT22;13733;51.178;4.450;2023-04-03T10:24:18;10.50;95.20
25937;DHT22;13733;51.178;4.450;2023-04-03T10:27:25;10.50;95.50
25937;DHT22;13733;51.178;4.450;2023-04-03T10:30:19;10.60;95.70
25937;DHT22;13733;51.178;4.450;2023-04-03T10:38:33;10.80;83.90
25937;DHT22;13733;51.178;4.450;2023-04-03T10:43:42;11.40;84.80
25937;DHT22;13733;51.178;4.450;2023-04-03T10:46:37;11.60;81.30
25937;DHT22;13733;51.178;4.450;2023-04-03T10:54:25;12.60;76.80
25937;DHT22;13733;51.178;4.450;2023-04-03T10:56:54;12.90;71.50
25937;DHT22;13733;51.178;4.450;2023-04-03T11:02:17;13.50;57.70
25937;DHT22;13733;51.178;4.450;2023-04-03T11:04:48;13.90;56.90
25937;DHT22;13733;51.178;4.450;2023-04-03T11:07:23;14.30;55.00
25937;DHT22;13733;51.178;4.450;2023-04-03T11:09:54;14.60;53.60
25937;DHT22;13733;51.178;4.450;2023-04-03T11:12:26;14.30;51.10
25937;DHT22;13733;51.178;4.450;2023-04-03T11:14:55;14.40;50.60
25937;DHT22;13733;51.178;4.450;2023-04-03T11:17:27;14.40;50.80
25937;DHT22;13733;51.178;4.450;2023-04-03T11:22:29;14.20;50.50
25937;DHT22;13733;51.178;4.450;2023-04-03T11:25:04;14.60;51.20
25937;DHT22;13733;51.178;4.450;2023-04-03T11:27:45;15.20;48.80
25937;DHT22;13733;51.178;4.450;2023-04-03T11:35:52;16.00;43.90
25937;DHT22;13733;51.178;4.450;2023-04-03T11:38:26;16.10;41.10
25937;DHT22;13733;51.178;4.450;2023-04-03T11:40:55;16.30;40.50
25937;DHT22;13733;51.178;4.450;2023-04-03T11:43:28;16.70;40.50
25937;DHT22;13733;51.178;4.450;2023-04-03T11:46:03;16.80;40.00
25937;DHT22;13733;51.178;4.450;2023-04-03T11:53:38;16.70;33.80
25937;DHT22;13733;51.178;4.450;2023-04-03T12:01:54;17.50;32.00
25937;DHT22;13733;51.178;4.450;2023-04-03T12:04:22;18.00;31.20
25937;DHT22;13733;51.178;4.450;2023-04-03T12:06:51;18.10;29.90
25937;DHT22;13733;51.178;4.450;2023-04-03T12:14:48;18.80;29.00
25937;DHT22;13733;51.178;4.450;2023-04-03T12:17:27;18.70;28.20
25937;DHT22;13733;51.178;4.450;2023-04-03T12:19:54;18.80;28.20
25937;DHT22;13733;51.178;4.450;2023-04-03T12:22:21;18.80;28.80
25937;DHT22;13733;51.178;4.450;2023-04-03T12:24:55;18.90;29.40
25937;DHT22;13733;51.178;4.450;2023-04-03T12:27:33;19.10;28.70
25937;DHT22;13733;51.178;4.450;2023-04-03T12:30:10;19.40;27.60
25937;DHT22;13733;51.178;4.450;2023-04-03T12:36:18;19.70;27.40
25937;DHT22;13733;51.178;4.450;2023-04-03T12:39:13;19.70;26.00
25937;DHT22;13733;51.178;4.450;2023-04-03T12:46:52;19.90;25.60
25937;DHT22;13733;51.178;4.450;2023-04-03T12:49:30;20.30;25.30
25937;DHT22;13733;51.178;4.450;2023-04-03T12:51:58;20.50;25.30
25937;DHT22;13733;51.178;4.450;2023-04-03T12:54:35;20.80;24.90
25937;DHT22;13733;51.178;4.450;2023-04-03T12:57:40;20.90;25.10
25937;DHT22;13733;51.178;4.450;2023-04-03T13:02:53;21.70;24.70
25937;DHT22;13733;51.178;4.450;2023-04-03T13:05:19;21.50;24.30
25937;DHT22;13733;51.178;4.450;2023-04-03T13:07:54;21.30;24.90
25937;DHT22;13733;51.178;4.450;2023-04-03T13:10:22;21.70;24.70
25937;DHT22;13733;51.178;4.450;2023-04-03T13:12:53;22.20;24.10
25937;DHT22;13733;51.178;4.450;2023-04-03T13:15:21;22.90;23.70
25937;DHT22;13733;51.178;4.450;2023-04-03T13:17:48;23.30;23.20
25937;DHT22;13733;51.178;4.450;2023-04-03T13:20:26;23.90;23.20
25937;DHT22;13733;51.178;4.450;2023-04-03T13:23:07;24.10;23.30
25937;DHT22;13733;51.178;4.450;2023-04-03T13:25:36;24.60;23.10
25937;DHT22;13733;51.178;4.450;2023-04-03T13:28:05;23.80;22.60
25937;DHT22;13733;51.178;4.450;2023-04-03T13:30:34;23.90;21.90
25937;DHT22;13733;51.178;4.450;2023-04-03T13:33:04;24.10;23.00
25937;DHT22;13733;51.178;4.450;2023-04-03T13:35:37;23.90;22.40
25937;DHT22;13733;51.178;4.450;2023-04-03T13:40:56;24.30;23.00
25937;DHT22;13733;51.178;4.450;2023-04-03T13:43:28;24.60;22.90
25937;DHT22;13733;51.178;4.450;2023-04-03T13:48:20;24.30;21.80
25937;DHT22;13733;51.178;4.450;2023-04-03T13:51:12;23.80;21.90
25937;DHT22;13733;51.178;4.450;2023-04-03T13:53:46;24.00;22.40
25937;DHT22;13733;51.178;4.450;2023-04-03T13:56:23;24.60;22.10
25937;DHT22;13733;51.178;4.450;2023-04-03T14:04:18;24.50;21.50
25937;DHT22;13733;51.178;4.450;2023-04-03T14:06:44;24.60;21.40
25937;DHT22;13733;51.178;4.450;2023-04-03T14:09:10;25.70;21.50
25937;DHT22;13733;51.178;4.450;2023-04-03T14:11:36;25.80;21.60
25937;DHT22;13733;51.178;4.450;2023-04-03T14:14:09;25.10;21.60
25937;DHT22;13733;51.178;4.450;2023-04-03T14:16:39;24.40;22.10
25937;DHT22;13733;51.178;4.450;2023-04-03T14:19:06;24.40;21.50
25937;DHT22;13733;51.178;4.450;2023-04-03T14:21:33;25.30;21.30
25937;DHT22;13733;51.178;4.450;2023-04-03T14:23:58;25.40;20.40
25937;DHT22;13733;51.178;4.450;2023-04-03T14:26:25;25.50;20.50
25937;DHT22;13733;51.178;4.450;2023-04-03T14:28:54;25.60;20.30
25937;DHT22;13733;51.178;4.450;2023-04-03T14:31:21;26.40;20.20
25937;DHT22;13733;51.178;4.450;2023-04-03T14:33:47;27.00;20.40
25937;DHT22;13733;51.178;4.450;2023-04-03T14:36:20;27.30;19.70
25937;DHT22;13733;51.178;4.450;2023-04-03T14:38:46;27.00;20.10
25937;DHT22;13733;51.178;4.450;2023-04-03T14:41:14;27.60;20.10
25937;DHT22;13733;51.178;4.450;2023-04-03T14:43:40;27.30;19.30
25937;DHT22;13733;51.178;4.450;2023-04-03T14:46:17;26.10;19.30
25937;DHT22;13733;51.178;4.450;2023-04-03T14:48:44;25.20;19.80
25937;DHT22;13733;51.178;4.450;2023-04-03T14:51:14;25.10;20.50
25937;DHT22;13733;51.178;4.450;2023-04-03T14:53:41;25.70;19.50
25937;DHT22;13733;51.178;4.450;2023-04-03T14:56:14;25.80;19.60
25937;DHT22;13733;51.178;4.450;2023-04-03T14:58:42;25.60;20.30
25937;DHT22;13733;51.178;4.450;2023-04-03T15:01:12;25.70;19.40
25937;DHT22;13733;51.178;4.450;2023-04-03T15:03:39;25.00;20.00
25937;DHT22;13733;51.178;4.450;2023-04-03T15:06:05;25.70;20.10
25937;DHT22;13733;51.178;4.450;2023-04-03T15:08:31;25.90;19.80
25937;DHT22;13733;51.178;4.450;2023-04-03T15:10:57;26.10;19.30
25937;DHT22;13733;51.178;4.450;2023-04-03T15:13:24;25.90;19.50
25937;DHT22;13733;51.178;4.450;2023-04-03T15:15:51;26.50;20.00
25937;DHT22;13733;51.178;4.450;2023-04-03T15:18:22;26.90;19.80
25937;DHT22;13733;51.178;4.450;2023-04-03T15:20:48;27.40;19.20
25937;DHT22;13733;51.178;4.450;2023-04-03T15:23:15;27.20;18.30
25937;DHT22;13733;51.178;4.450;2023-04-03T15:25:43;25.80;18.80
25937;DHT22;13733;51.178;4.450;2023-04-03T15:28:16;25.60;19.10
25937;DHT22;13733;51.178;4.450;2023-04-03T15:30:43;25.70;19.00
25937;DHT22;13733;51.178;4.450;2023-04-03T15:33:09;26.40;19.10
25937;DHT22;13733;51.178;4.450;2023-04-03T15:35:34;26.90;18.80
25937;DHT22;13733;51.178;4.450;2023-04-03T15:38:00;26.00;18.90
25937;DHT22;13733;51.178;4.450;2023-04-03T15:40:26;26.00;19.00
25937;DHT22;13733;51.178;4.450;2023-04-03T15:42:51;26.00;19.40
25937;DHT22;13733;51.178;4.450;2023-04-03T15:45:17;26.30;19.50
25937;DHT22;13733;51.178;4.450;2023-04-03T15:47:43;26.40;20.20
25937;DHT22;13733;51.178;4.450;2023-04-03T15:50:09;25.90;19.90
25937;DHT22;13733;51.178;4.450;2023-04-03T15:52:35;25.80;20.00
25937;DHT22;13733;51.178;4.450;2023-04-03T15:55:01;25.90;20.30
25937;DHT22;13733;51.178;4.450;2023-04-03T15:57:27;25.80;19.30
25937;DHT22;13733;51.178;4.450;2023-04-03T15:59:53;25.90;19.60
25937;DHT22;13733;51.178;4.450;2023-04-03T16:02:19;25.60;19.30
25937;DHT22;13733;51.178;4.450;2023-04-03T16:04:45;26.00;19.50
25937;DHT22;13733;51.178;4.450;2023-04-03T16:07:10;25.70;19.60
25937;DHT22;13733;51.178;4.450;2023-04-03T16:09:36;25.50;20.10
25937;DHT22;13733;51.178;4.450;2023-04-03T16:12:02;25.50;20.10
25937;DHT22;13733;51.178;4.450;2023-04-03T16:14:28;25.30;20.40
25937;DHT22;13733;51.178;4.450;2023-04-03T16:16:56;25.80;20.50
25937;DHT22;13733;51.178;4.450;2023-04-03T16:19:22;26.60;20.20
25937;DHT22;13733;51.178;4.450;2023-04-03T16:21:48;26.00;19.90
25937;DHT22;13733;51.178;4.450;2023-04-03T16:24:14;25.40;20.80
25937;DHT22;13733;51.178;4.450;2023-04-03T16:26:40;25.30;20.70
25937;DHT22;13733;51.178;4.450;2023-04-03T16:29:05;25.50;21.30
25937;DHT22;13733;51.178;4.450;2023-04-03T16:31:33;26.10;21.00
25937;DHT22;13733;51.178;4.450;2023-04-03T16:34:00;25.70;20.50
25937;DHT22;13733;51.178;4.450;2023-04-03T16:36:26;25.40;20.90
25937;DHT22;13733;51.178;4.450;2023-04-03T16:38:52;25.20;20.70
25937;DHT22;13733;51.178;4.450;2023-04-03T16:41:17;25.00;21.00
25937;DHT22;13733;51.178;4.450;2023-04-03T16:43:43;24.40;21.10
25937;DHT22;13733;51.178;4.450;2023-04-03T16:46:09;23.20;22.40
25937;DHT22;13733;51.178;4.450;2023-04-03T16:48:35;22.20;23.40
25937;DHT22;13733;51.178;4.450;2023-04-03T16:51:00;21.90;24.50
25937;DHT22;13733;51.178;4.450;2023-04-03T16:53:27;20.70;25.10
25937;DHT22;13733;51.178;4.450;2023-04-03T16:55:53;19.30;26.30
25937;DHT22;13733;51.178;4.450;2023-04-03T16:58:20;18.40;27.50
25937;DHT22;13733;51.178;4.450;2023-04-03T17:00:46;17.50;28.90
25937;DHT22;13733;51.178;4.450;2023-04-03T17:03:12;16.90;29.80
25937;DHT22;13733;51.178;4.450;2023-04-03T17:05:38;16.20;30.00
25937;DHT22;13733;51.178;4.450;2023-04-03T17:08:04;15.40;31.00
25937;DHT22;13733;51.178;4.450;2023-04-03T17:10:29;15.00;32.60
25937;DHT22;13733;51.178;4.450;2023-04-03T17:12:55;14.50;33.00
25937;DHT22;13733;51.178;4.450;2023-04-03T17:15:21;14.30;34.10
25937;DHT22;13733;51.178;4.450;2023-04-03T17:17:51;14.00;33.90
25937;DHT22;13733;51.178;4.450;2023-04-03T17:20:17;13.70;34.40
25937;DHT22;13733;51.178;4.450;2023-04-03T17:22:43;13.50;35.20
25937;DHT22;13733;51.178;4.450;2023-04-03T17:25:10;13.20;35.90